SKCG/CTG METAR and TAF weather

Enter ICAO airport designator
Station Type Date Time Source
SKCG METAR 2020/06/03 16:00 UTC NOAA

SKCG 031600Z 28006KT 260V330 9999 FEW015CB SCT080 30/26 A2987 RMK CB/S


Station Type Date Time Source
SKCG Decoded METAR 2020/06/03 16:00 UTC NOAA

Cartagena / Rafael Nunez, Colombia (SKCG) 10-27N 075-31W 12M
Jun 03, 2020 - 12:00 PM EDT / 2020.06.03 1600 UTC
Wind: from the W (280 degrees) at 7 MPH (6 KT) (direction variable):0
Visibility: greater than 7 mile(s):0
Sky conditions: partly cloudy
Weather: Cumulonimbus clouds observed
Temperature: 86 F (30 C)
Heat index: 99.3 F (37.4 C):1
Dew Point: 78 F (26 C)
Relative Humidity: 79%
Pressure (altimeter): 29.87 in. Hg (1011 hPa)
ob: SKCG 031600Z 28006KT 260V330 9999 FEW015CB SCT080 30/26 A2987 RMK CB/S
cycle: 16

Station Type Date Time Source
SKCG TAF 2020/06/03 12:33 UTC NOAA

TAF SKCG 031030Z 0312/0412 22008KT 9999 SCT017 SCT090
TEMPO 0314/0317 8000 RADZ FEW017CB BKN080
TEMPO 0317/0322 26012KT TX33/0319Z TN25/0411Z

Example: see airport list